sensor_id;sensor_type;location;lat;lon;timestamp;P1;durP1;ratioP1;P2;durP2;ratioP2
7479;SDS011;3781;42.272;22.658;2023-04-03T00:00:37;2.27;;;1.00;;
7479;SDS011;3781;42.272;22.658;2023-04-03T00:03:04;1.37;;;0.60;;
7479;SDS011;3781;42.272;22.658;2023-04-03T00:05:31;2.67;;;1.33;;
7479;SDS011;3781;42.272;22.658;2023-04-03T00:07:59;0.60;;;0.60;;
7479;SDS011;3781;42.272;22.658;2023-04-03T00:10:29;2.00;;;0.60;;
7479;SDS011;3781;42.272;22.658;2023-04-03T00:12:55;2.40;;;1.63;;
7479;SDS011;3781;42.272;22.658;2023-04-03T00:15:22;4.63;;;0.93;;
7479;SDS011;3781;42.272;22.658;2023-04-03T00:17:49;4.97;;;1.57;;
7479;SDS011;3781;42.272;22.658;2023-04-03T00:20:16;1.27;;;0.80;;
7479;SDS011;3781;42.272;22.658;2023-04-03T00:22:43;3.43;;;1.37;;
7479;SDS011;3781;42.272;22.658;2023-04-03T00:25:11;0.93;;;0.93;;
7479;SDS011;3781;42.272;22.658;2023-04-03T00:27:38;0.77;;;0.33;;
7479;SDS011;3781;42.272;22.658;2023-04-03T00:30:06;0.00;;;0.00;;
7479;SDS011;3781;42.272;22.658;2023-04-03T00:32:34;0.00;;;0.00;;
7479;SDS011;3781;42.272;22.658;2023-04-03T00:35:01;0.10;;;0.10;;
7479;SDS011;3781;42.272;22.658;2023-04-03T00:37:28;0.00;;;0.00;;
7479;SDS011;3781;42.272;22.658;2023-04-03T00:39:55;0.10;;;0.10;;
7479;SDS011;3781;42.272;22.658;2023-04-03T00:42:24;1.03;;;0.20;;
7479;SDS011;3781;42.272;22.658;2023-04-03T00:48:04;0.20;;;0.20;;
7479;SDS011;3781;42.272;22.658;2023-04-03T00:50:34;0.70;;;0.70;;
7479;SDS011;3781;42.272;22.658;2023-04-03T00:53:03;0.10;;;0.10;;
7479;SDS011;3781;42.272;22.658;2023-04-03T00:55:32;0.20;;;0.20;;
7479;SDS011;3781;42.272;22.658;2023-04-03T00:58:03;0.23;;;0.23;;
7479;SDS011;3781;42.272;22.658;2023-04-03T01:00:32;0.57;;;0.57;;
7479;SDS011;3781;42.272;22.658;2023-04-03T01:02:59;0.50;;;0.43;;
7479;SDS011;3781;42.272;22.658;2023-04-03T01:05:26;0.10;;;0.10;;
7479;SDS011;3781;42.272;22.658;2023-04-03T01:07:53;0.20;;;0.20;;
7479;SDS011;3781;42.272;22.658;2023-04-03T01:10:20;0.10;;;0.10;;
7479;SDS011;3781;42.272;22.658;2023-04-03T01:12:49;0.43;;;0.33;;
7479;SDS011;3781;42.272;22.658;2023-04-03T01:15:18;0.03;;;0.03;;
7479;SDS011;3781;42.272;22.658;2023-04-03T01:17:48;0.10;;;0.10;;
7479;SDS011;3781;42.272;22.658;2023-04-03T01:20:30;0.10;;;0.10;;
7479;SDS011;3781;42.272;22.658;2023-04-03T01:26:03;0.00;;;0.00;;
7479;SDS011;3781;42.272;22.658;2023-04-03T01:28:31;0.30;;;0.30;;
7479;SDS011;3781;42.272;22.658;2023-04-03T01:31:02;1.33;;;0.63;;
7479;SDS011;3781;42.272;22.658;2023-04-03T01:33:35;0.20;;;0.20;;
7479;SDS011;3781;42.272;22.658;2023-04-03T01:36:04;0.45;;;0.45;;
7479;SDS011;3781;42.272;22.658;2023-04-03T01:38:32;0.60;;;0.40;;
7479;SDS011;3781;42.272;22.658;2023-04-03T01:40:58;3.93;;;1.40;;
7479;SDS011;3781;42.272;22.658;2023-04-03T01:43:25;2.87;;;1.20;;
7479;SDS011;3781;42.272;22.658;2023-04-03T01:45:52;1.97;;;1.57;;
7479;SDS011;3781;42.272;22.658;2023-04-03T01:48:20;1.57;;;1.10;;
7479;SDS011;3781;42.272;22.658;2023-04-03T01:50:48;1.50;;;1.27;;
7479;SDS011;3781;42.272;22.658;2023-04-03T01:53:15;0.90;;;0.87;;
7479;SDS011;3781;42.272;22.658;2023-04-03T01:55:42;1.30;;;1.03;;
7479;SDS011;3781;42.272;22.658;2023-04-03T01:58:09;1.00;;;1.00;;
7479;SDS011;3781;42.272;22.658;2023-04-03T02:00:35;1.00;;;0.57;;
7479;SDS011;3781;42.272;22.658;2023-04-03T02:03:02;1.37;;;1.27;;
7479;SDS011;3781;42.272;22.658;2023-04-03T02:05:29;0.80;;;0.80;;
7479;SDS011;3781;42.272;22.658;2023-04-03T02:07:57;1.87;;;1.13;;
7479;SDS011;3781;42.272;22.658;2023-04-03T02:10:25;10.23;;;1.73;;
7479;SDS011;3781;42.272;22.658;2023-04-03T02:12:51;2.57;;;1.90;;
7479;SDS011;3781;42.272;22.658;2023-04-03T02:15:18;3.60;;;1.63;;
7479;SDS011;3781;42.272;22.658;2023-04-03T02:17:45;2.80;;;1.00;;
7479;SDS011;3781;42.272;22.658;2023-04-03T02:20:12;3.77;;;2.20;;
7479;SDS011;3781;42.272;22.658;2023-04-03T02:22:39;6.23;;;2.10;;
7479;SDS011;3781;42.272;22.658;2023-04-03T02:25:07;0.70;;;0.70;;
7479;SDS011;3781;42.272;22.658;2023-04-03T02:27:35;0.43;;;0.43;;
7479;SDS011;3781;42.272;22.658;2023-04-03T02:30:02;1.83;;;0.80;;
7479;SDS011;3781;42.272;22.658;2023-04-03T02:32:29;0.37;;;0.37;;
7479;SDS011;3781;42.272;22.658;2023-04-03T02:34:56;0.40;;;0.40;;
7479;SDS011;3781;42.272;22.658;2023-04-03T02:37:22;0.87;;;0.30;;
7479;SDS011;3781;42.272;22.658;2023-04-03T02:39:49;0.43;;;0.43;;
7479;SDS011;3781;42.272;22.658;2023-04-03T02:42:17;0.10;;;0.10;;
7479;SDS011;3781;42.272;22.658;2023-04-03T02:44:44;0.23;;;0.23;;
7479;SDS011;3781;42.272;22.658;2023-04-03T02:47:11;1.43;;;0.10;;
7479;SDS011;3781;42.272;22.658;2023-04-03T02:49:38;1.70;;;0.67;;
7479;SDS011;3781;42.272;22.658;2023-04-03T02:52:05;0.17;;;0.17;;
7479;SDS011;3781;42.272;22.658;2023-04-03T02:54:31;0.87;;;0.30;;
7479;SDS011;3781;42.272;22.658;2023-04-03T02:56:58;0.10;;;0.10;;
7479;SDS011;3781;42.272;22.658;2023-04-03T02:59:27;0.27;;;0.27;;
7479;SDS011;3781;42.272;22.658;2023-04-03T03:01:54;0.50;;;0.40;;
7479;SDS011;3781;42.272;22.658;2023-04-03T03:04:21;0.00;;;0.00;;
7479;SDS011;3781;42.272;22.658;2023-04-03T03:06:48;0.00;;;0.00;;
7479;SDS011;3781;42.272;22.658;2023-04-03T03:09:15;0.37;;;0.37;;
7479;SDS011;3781;42.272;22.658;2023-04-03T03:11:43;0.20;;;0.20;;
7479;SDS011;3781;42.272;22.658;2023-04-03T03:14:10;3.77;;;1.03;;
7479;SDS011;3781;42.272;22.658;2023-04-03T03:16:38;8.50;;;1.87;;
7479;SDS011;3781;42.272;22.658;2023-04-03T03:19:05;3.60;;;1.90;;
7479;SDS011;3781;42.272;22.658;2023-04-03T03:21:32;5.07;;;1.80;;
7479;SDS011;3781;42.272;22.658;2023-04-03T03:23:59;8.47;;;1.60;;
7479;SDS011;3781;42.272;22.658;2023-04-03T03:26:25;3.73;;;1.77;;
7479;SDS011;3781;42.272;22.658;2023-04-03T03:28:52;5.80;;;1.30;;
7479;SDS011;3781;42.272;22.658;2023-04-03T03:31:19;2.87;;;1.80;;
7479;SDS011;3781;42.272;22.658;2023-04-03T03:33:47;1.50;;;0.77;;
7479;SDS011;3781;42.272;22.658;2023-04-03T03:36:14;1.67;;;1.57;;
7479;SDS011;3781;42.272;22.658;2023-04-03T03:38:41;1.70;;;0.83;;
7479;SDS011;3781;42.272;22.658;2023-04-03T03:41:07;1.70;;;1.50;;
7479;SDS011;3781;42.272;22.658;2023-04-03T03:43:34;1.50;;;1.03;;
7479;SDS011;3781;42.272;22.658;2023-04-03T03:46:01;0.90;;;0.90;;
7479;SDS011;3781;42.272;22.658;2023-04-03T03:48:28;4.97;;;1.10;;
7479;SDS011;3781;42.272;22.658;2023-04-03T03:50:56;0.50;;;0.50;;
7479;SDS011;3781;42.272;22.658;2023-04-03T03:53:23;0.50;;;0.50;;
7479;SDS011;3781;42.272;22.658;2023-04-03T03:55:50;12.87;;;1.80;;
7479;SDS011;3781;42.272;22.658;2023-04-03T03:58:17;1.00;;;0.80;;
7479;SDS011;3781;42.272;22.658;2023-04-03T04:00:44;0.70;;;0.70;;
7479;SDS011;3781;42.272;22.658;2023-04-03T04:03:10;1.03;;;0.50;;
7479;SDS011;3781;42.272;22.658;2023-04-03T04:05:37;0.63;;;0.50;;
7479;SDS011;3781;42.272;22.658;2023-04-03T04:08:05;2.30;;;1.07;;
7479;SDS011;3781;42.272;22.658;2023-04-03T04:10:32;1.30;;;1.17;;
7479;SDS011;3781;42.272;22.658;2023-04-03T04:12:59;4.70;;;1.30;;
7479;SDS011;3781;42.272;22.658;2023-04-03T04:15:26;1.67;;;1.57;;
7479;SDS011;3781;42.272;22.658;2023-04-03T04:17:53;2.00;;;1.53;;
7479;SDS011;3781;42.272;22.658;2023-04-03T04:20:19;2.90;;;1.47;;
7479;SDS011;3781;42.272;22.658;2023-04-03T04:22:46;0.83;;;0.83;;
7479;SDS011;3781;42.272;22.658;2023-04-03T04:25:15;1.67;;;1.03;;
7479;SDS011;3781;42.272;22.658;2023-04-03T04:27:41;4.87;;;1.47;;
7479;SDS011;3781;42.272;22.658;2023-04-03T04:30:09;3.57;;;2.43;;
7479;SDS011;3781;42.272;22.658;2023-04-03T04:32:37;5.00;;;2.47;;
7479;SDS011;3781;42.272;22.658;2023-04-03T04:35:04;5.83;;;2.70;;
7479;SDS011;3781;42.272;22.658;2023-04-03T04:37:31;1.57;;;1.07;;
7479;SDS011;3781;42.272;22.658;2023-04-03T04:39:58;3.03;;;1.03;;
7479;SDS011;3781;42.272;22.658;2023-04-03T04:42:27;2.17;;;0.77;;
7479;SDS011;3781;42.272;22.658;2023-04-03T04:44:53;1.43;;;1.33;;
7479;SDS011;3781;42.272;22.658;2023-04-03T04:47:20;0.87;;;0.83;;
7479;SDS011;3781;42.272;22.658;2023-04-03T04:49:47;1.03;;;0.73;;
7479;SDS011;3781;42.272;22.658;2023-04-03T04:52:14;0.30;;;0.27;;
7479;SDS011;3781;42.272;22.658;2023-04-03T04:54:41;0.57;;;0.57;;
7479;SDS011;3781;42.272;22.658;2023-04-03T04:57:07;1.20;;;0.73;;
7479;SDS011;3781;42.272;22.658;2023-04-03T04:59:37;2.43;;;1.20;;
7479;SDS011;3781;42.272;22.658;2023-04-03T05:02:04;0.30;;;0.30;;
7479;SDS011;3781;42.272;22.658;2023-04-03T05:04:30;2.10;;;1.10;;
7479;SDS011;3781;42.272;22.658;2023-04-03T05:06:58;5.97;;;1.10;;
7479;SDS011;3781;42.272;22.658;2023-04-03T05:09:25;2.53;;;0.97;;
7479;SDS011;3781;42.272;22.658;2023-04-03T05:11:52;9.47;;;3.03;;
7479;SDS011;3781;42.272;22.658;2023-04-03T05:14:19;8.33;;;4.50;;
7479;SDS011;3781;42.272;22.658;2023-04-03T05:16:47;6.27;;;3.60;;
7479;SDS011;3781;42.272;22.658;2023-04-03T05:19:17;4.63;;;4.17;;
7479;SDS011;3781;42.272;22.658;2023-04-03T05:21:44;6.13;;;2.17;;
7479;SDS011;3781;42.272;22.658;2023-04-03T05:24:11;6.57;;;2.33;;
7479;SDS011;3781;42.272;22.658;2023-04-03T05:26:38;4.13;;;3.10;;
7479;SDS011;3781;42.272;22.658;2023-04-03T05:29:05;11.30;;;3.93;;
7479;SDS011;3781;42.272;22.658;2023-04-03T05:31:32;3.17;;;2.20;;
7479;SDS011;3781;42.272;22.658;2023-04-03T05:34:00;6.50;;;2.10;;
7479;SDS011;3781;42.272;22.658;2023-04-03T05:36:27;3.87;;;1.73;;
7479;SDS011;3781;42.272;22.658;2023-04-03T05:38:54;8.57;;;1.57;;
7479;SDS011;3781;42.272;22.658;2023-04-03T05:41:22;5.13;;;2.10;;
7479;SDS011;3781;42.272;22.658;2023-04-03T05:43:49;4.80;;;2.77;;
7479;SDS011;3781;42.272;22.658;2023-04-03T05:46:17;3.90;;;1.53;;
7479;SDS011;3781;42.272;22.658;2023-04-03T05:48:45;1.80;;;1.63;;
7479;SDS011;3781;42.272;22.658;2023-04-03T05:51:15;1.80;;;1.00;;
7479;SDS011;3781;42.272;22.658;2023-04-03T05:53:43;2.30;;;2.10;;
7479;SDS011;3781;42.272;22.658;2023-04-03T05:56:11;6.07;;;2.67;;
7479;SDS011;3781;42.272;22.658;2023-04-03T05:58:37;4.93;;;2.30;;
7479;SDS011;3781;42.272;22.658;2023-04-03T06:01:04;2.10;;;1.97;;
7479;SDS011;3781;42.272;22.658;2023-04-03T06:03:31;0.70;;;0.67;;
7479;SDS011;3781;42.272;22.658;2023-04-03T06:05:58;2.60;;;1.43;;
7479;SDS011;3781;42.272;22.658;2023-04-03T06:08:26;2.30;;;2.17;;
7479;SDS011;3781;42.272;22.658;2023-04-03T06:10:53;4.93;;;2.47;;
7479;SDS011;3781;42.272;22.658;2023-04-03T06:13:20;6.93;;;3.27;;
7479;SDS011;3781;42.272;22.658;2023-04-03T06:15:47;11.33;;;3.47;;
7479;SDS011;3781;42.272;22.658;2023-04-03T06:18:13;8.00;;;3.40;;
7479;SDS011;3781;42.272;22.658;2023-04-03T06:20:40;3.30;;;2.03;;
7479;SDS011;3781;42.272;22.658;2023-04-03T06:23:07;5.63;;;2.27;;
7479;SDS011;3781;42.272;22.658;2023-04-03T06:25:35;2.47;;;1.50;;
7479;SDS011;3781;42.272;22.658;2023-04-03T06:28:02;1.40;;;0.80;;
7479;SDS011;3781;42.272;22.658;2023-04-03T06:30:29;0.13;;;0.10;;
7479;SDS011;3781;42.272;22.658;2023-04-03T06:32:55;1.10;;;0.83;;
7479;SDS011;3781;42.272;22.658;2023-04-03T06:35:22;4.30;;;1.63;;
7479;SDS011;3781;42.272;22.658;2023-04-03T06:37:50;7.37;;;3.00;;
7479;SDS011;3781;42.272;22.658;2023-04-03T06:40:18;7.43;;;2.73;;
7479;SDS011;3781;42.272;22.658;2023-04-03T06:42:48;9.17;;;3.13;;
7479;SDS011;3781;42.272;22.658;2023-04-03T06:45:15;10.60;;;5.37;;
7479;SDS011;3781;42.272;22.658;2023-04-03T06:47:42;8.23;;;4.60;;
7479;SDS011;3781;42.272;22.658;2023-04-03T06:50:10;16.93;;;8.77;;
7479;SDS011;3781;42.272;22.658;2023-04-03T06:52:39;21.23;;;8.47;;
7479;SDS011;3781;42.272;22.658;2023-04-03T06:55:06;17.13;;;8.00;;
7479;SDS011;3781;42.272;22.658;2023-04-03T06:57:34;13.10;;;7.97;;
7479;SDS011;3781;42.272;22.658;2023-04-03T07:00:03;11.10;;;7.63;;
7479;SDS011;3781;42.272;22.658;2023-04-03T07:02:30;11.10;;;7.37;;
7479;SDS011;3781;42.272;22.658;2023-04-03T07:04:57;14.27;;;5.97;;
7479;SDS011;3781;42.272;22.658;2023-04-03T07:07:24;20.90;;;6.87;;
7479;SDS011;3781;42.272;22.658;2023-04-03T07:09:51;29.73;;;9.13;;
7479;SDS011;3781;42.272;22.658;2023-04-03T07:12:18;14.27;;;6.37;;
7479;SDS011;3781;42.272;22.658;2023-04-03T07:14:51;18.63;;;10.67;;
7479;SDS011;3781;42.272;22.658;2023-04-03T07:17:20;24.83;;;8.30;;
7479;SDS011;3781;42.272;22.658;2023-04-03T07:19:47;15.83;;;7.57;;
7479;SDS011;3781;42.272;22.658;2023-04-03T07:22:13;10.20;;;6.93;;
7479;SDS011;3781;42.272;22.658;2023-04-03T07:24:42;22.73;;;12.03;;
7479;SDS011;3781;42.272;22.658;2023-04-03T07:27:09;12.67;;;8.20;;
7479;SDS011;3781;42.272;22.658;2023-04-03T07:29:37;16.20;;;6.87;;
7479;SDS011;3781;42.272;22.658;2023-04-03T07:32:05;10.33;;;3.83;;
7479;SDS011;3781;42.272;22.658;2023-04-03T07:34:33;14.87;;;5.83;;
7479;SDS011;3781;42.272;22.658;2023-04-03T07:37:02;13.20;;;6.27;;
7479;SDS011;3781;42.272;22.658;2023-04-03T07:39:32;7.73;;;2.97;;
7479;SDS011;3781;42.272;22.658;2023-04-03T07:41:59;7.77;;;2.80;;
7479;SDS011;3781;42.272;22.658;2023-04-03T07:44:27;3.60;;;2.27;;
7479;SDS011;3781;42.272;22.658;2023-04-03T07:46:59;3.90;;;1.43;;
7479;SDS011;3781;42.272;22.658;2023-04-03T07:49:26;2.87;;;0.83;;
7479;SDS011;3781;42.272;22.658;2023-04-03T07:51:56;1.37;;;0.97;;
7479;SDS011;3781;42.272;22.658;2023-04-03T07:54:23;0.97;;;0.97;;
7479;SDS011;3781;42.272;22.658;2023-04-03T07:56:50;1.70;;;1.33;;
7479;SDS011;3781;42.272;22.658;2023-04-03T07:59:22;0.60;;;0.60;;
7479;SDS011;3781;42.272;22.658;2023-04-03T08:01:53;0.90;;;0.70;;
7479;SDS011;3781;42.272;22.658;2023-04-03T08:04:28;1.30;;;1.20;;
7479;SDS011;3781;42.272;22.658;2023-04-03T08:06:59;1.70;;;0.80;;
7479;SDS011;3781;42.272;22.658;2023-04-03T08:09:26;2.37;;;1.43;;
7479;SDS011;3781;42.272;22.658;2023-04-03T08:11:53;2.17;;;1.40;;
7479;SDS011;3781;42.272;22.658;2023-04-03T08:14:20;0.70;;;0.70;;
7479;SDS011;3781;42.272;22.658;2023-04-03T08:16:47;0.70;;;0.70;;
7479;SDS011;3781;42.272;22.658;2023-04-03T08:19:14;1.53;;;0.70;;
7479;SDS011;3781;42.272;22.658;2023-04-03T08:21:43;0.83;;;0.77;;
7479;SDS011;3781;42.272;22.658;2023-04-03T08:24:11;0.50;;;0.50;;
7479;SDS011;3781;42.272;22.658;2023-04-03T08:26:38;0.30;;;0.30;;
7479;SDS011;3781;42.272;22.658;2023-04-03T08:29:05;0.77;;;0.53;;
7479;SDS011;3781;42.272;22.658;2023-04-03T08:31:32;1.33;;;1.10;;
7479;SDS011;3781;42.272;22.658;2023-04-03T08:33:58;1.23;;;0.53;;
7479;SDS011;3781;42.272;22.658;2023-04-03T08:36:26;0.83;;;0.73;;
7479;SDS011;3781;42.272;22.658;2023-04-03T08:38:56;1.53;;;0.63;;
7479;SDS011;3781;42.272;22.658;2023-04-03T08:41:29;0.20;;;0.20;;
7479;SDS011;3781;42.272;22.658;2023-04-03T08:44:02;0.87;;;0.43;;
7479;SDS011;3781;42.272;22.658;2023-04-03T08:46:38;0.53;;;0.27;;
7479;SDS011;3781;42.272;22.658;2023-04-03T08:49:15;0.57;;;0.57;;
7479;SDS011;3781;42.272;22.658;2023-04-03T08:51:52;7.33;;;2.00;;
7479;SDS011;3781;42.272;22.658;2023-04-03T08:54:23;1.27;;;1.10;;
7479;SDS011;3781;42.272;22.658;2023-04-03T08:56:56;2.20;;;0.40;;
7479;SDS011;3781;42.272;22.658;2023-04-03T08:59:27;1.03;;;0.60;;
7479;SDS011;3781;42.272;22.658;2023-04-03T09:01:56;2.10;;;0.63;;
7479;SDS011;3781;42.272;22.658;2023-04-03T09:04:27;2.33;;;0.40;;
7479;SDS011;3781;42.272;22.658;2023-04-03T09:06:58;0.80;;;0.30;;
7479;SDS011;3781;42.272;22.658;2023-04-03T09:09:31;0.50;;;0.40;;
7479;SDS011;3781;42.272;22.658;2023-04-03T09:12:06;0.57;;;0.43;;
7479;SDS011;3781;42.272;22.658;2023-04-03T09:14:43;0.47;;;0.47;;
7479;SDS011;3781;42.272;22.658;2023-04-03T09:17:17;3.53;;;0.33;;
7479;SDS011;3781;42.272;22.658;2023-04-03T09:19:54;3.47;;;2.73;;
7479;SDS011;3781;42.272;22.658;2023-04-03T09:22:25;2.90;;;1.87;;
7479;SDS011;3781;42.272;22.658;2023-04-03T09:24:55;2.17;;;1.20;;
7479;SDS011;3781;42.272;22.658;2023-04-03T09:27:27;0.73;;;0.70;;
7479;SDS011;3781;42.272;22.658;2023-04-03T09:29:55;0.10;;;0.10;;
7479;SDS011;3781;42.272;22.658;2023-04-03T09:32:25;0.10;;;0.10;;
7479;SDS011;3781;42.272;22.658;2023-04-03T09:34:54;0.57;;;0.40;;
7479;SDS011;3781;42.272;22.658;2023-04-03T09:37:34;0.40;;;0.40;;
7479;SDS011;3781;42.272;22.658;2023-04-03T09:40:27;0.10;;;0.10;;
7479;SDS011;3781;42.272;22.658;2023-04-03T09:42:58;0.67;;;0.50;;
7479;SDS011;3781;42.272;22.658;2023-04-03T09:45:27;0.20;;;0.20;;
7479;SDS011;3781;42.272;22.658;2023-04-03T09:48:07;0.93;;;0.70;;
7479;SDS011;3781;42.272;22.658;2023-04-03T09:50:52;0.87;;;0.87;;
7479;SDS011;3781;42.272;22.658;2023-04-03T09:53:26;0.97;;;0.83;;
7479;SDS011;3781;42.272;22.658;2023-04-03T09:55:57;0.57;;;0.43;;
7479;SDS011;3781;42.272;22.658;2023-04-03T09:58:27;0.33;;;0.33;;
7479;SDS011;3781;42.272;22.658;2023-04-03T10:00:56;0.40;;;0.40;;
7479;SDS011;3781;42.272;22.658;2023-04-03T10:03:25;0.30;;;0.30;;
7479;SDS011;3781;42.272;22.658;2023-04-03T10:05:56;1.10;;;0.30;;
7479;SDS011;3781;42.272;22.658;2023-04-03T10:08:27;0.43;;;0.43;;
7479;SDS011;3781;42.272;22.658;2023-04-03T10:11:12;0.50;;;0.50;;
7479;SDS011;3781;42.272;22.658;2023-04-03T10:13:54;0.43;;;0.40;;
7479;SDS011;3781;42.272;22.658;2023-04-03T10:16:25;0.20;;;0.20;;
7479;SDS011;3781;42.272;22.658;2023-04-03T10:19:01;1.03;;;0.50;;
7479;SDS011;3781;42.272;22.658;2023-04-03T10:21:39;0.40;;;0.40;;
7479;SDS011;3781;42.272;22.658;2023-04-03T10:24:11;0.20;;;0.20;;
7479;SDS011;3781;42.272;22.658;2023-04-03T10:26:45;0.27;;;0.27;;
7479;SDS011;3781;42.272;22.658;2023-04-03T10:29:24;0.30;;;0.30;;
7479;SDS011;3781;42.272;22.658;2023-04-03T10:32:18;0.93;;;0.93;;
7479;SDS011;3781;42.272;22.658;2023-04-03T10:34:55;0.13;;;0.13;;
7479;SDS011;3781;42.272;22.658;2023-04-03T10:37:29;0.63;;;0.53;;
7479;SDS011;3781;42.272;22.658;2023-04-03T10:40:03;1.80;;;0.20;;
7479;SDS011;3781;42.272;22.658;2023-04-03T10:42:38;0.57;;;0.43;;
7479;SDS011;3781;42.272;22.658;2023-04-03T10:45:20;0.10;;;0.10;;
7479;SDS011;3781;42.272;22.658;2023-04-03T10:47:55;0.40;;;0.30;;
7479;SDS011;3781;42.272;22.658;2023-04-03T10:50:34;0.20;;;0.17;;
7479;SDS011;3781;42.272;22.658;2023-04-03T10:53:09;0.20;;;0.20;;
7479;SDS011;3781;42.272;22.658;2023-04-03T10:55:45;0.50;;;0.30;;
7479;SDS011;3781;42.272;22.658;2023-04-03T10:58:19;0.73;;;0.20;;
7479;SDS011;3781;42.272;22.658;2023-04-03T11:00:52;0.20;;;0.20;;
7479;SDS011;3781;42.272;22.658;2023-04-03T11:03:26;0.33;;;0.13;;
7479;SDS011;3781;42.272;22.658;2023-04-03T11:05:57;4.43;;;0.80;;
7479;SDS011;3781;42.272;22.658;2023-04-03T11:08:28;0.30;;;0.30;;
7479;SDS011;3781;42.272;22.658;2023-04-03T11:10:59;0.43;;;0.40;;
7479;SDS011;3781;42.272;22.658;2023-04-03T11:13:33;0.83;;;0.83;;
7479;SDS011;3781;42.272;22.658;2023-04-03T11:16:03;0.50;;;0.50;;
7479;SDS011;3781;42.272;22.658;2023-04-03T11:18:32;0.77;;;0.63;;
7479;SDS011;3781;42.272;22.658;2023-04-03T11:21:07;1.20;;;0.50;;
7479;SDS011;3781;42.272;22.658;2023-04-03T11:23:39;0.63;;;0.57;;
7479;SDS011;3781;42.272;22.658;2023-04-03T11:26:09;0.30;;;0.30;;
7479;SDS011;3781;42.272;22.658;2023-04-03T11:28:38;0.30;;;0.30;;
7479;SDS011;3781;42.272;22.658;2023-04-03T11:31:13;0.93;;;0.30;;
7479;SDS011;3781;42.272;22.658;2023-04-03T11:34:05;2.30;;;1.47;;
7479;SDS011;3781;42.272;22.658;2023-04-03T11:36:42;1.40;;;0.77;;
7479;SDS011;3781;42.272;22.658;2023-04-03T11:39:16;0.30;;;0.30;;
7479;SDS011;3781;42.272;22.658;2023-04-03T11:41:49;1.60;;;0.37;;
7479;SDS011;3781;42.272;22.658;2023-04-03T11:44:28;0.20;;;0.20;;
7479;SDS011;3781;42.272;22.658;2023-04-03T11:47:00;2.53;;;0.73;;
7479;SDS011;3781;42.272;22.658;2023-04-03T11:58:19;5.80;;;2.27;;
7479;SDS011;3781;42.272;22.658;2023-04-03T12:00:49;13.47;;;3.53;;
7479;SDS011;3781;42.272;22.658;2023-04-03T12:09:26;1.80;;;1.27;;
7479;SDS011;3781;42.272;22.658;2023-04-03T12:12:01;3.23;;;1.07;;
7479;SDS011;3781;42.272;22.658;2023-04-03T12:14:50;3.33;;;0.67;;
7479;SDS011;3781;42.272;22.658;2023-04-03T12:17:20;4.23;;;0.30;;
7479;SDS011;3781;42.272;22.658;2023-04-03T12:19:52;1.30;;;0.70;;
7479;SDS011;3781;42.272;22.658;2023-04-03T12:22:21;0.60;;;0.60;;
7479;SDS011;3781;42.272;22.658;2023-04-03T12:24:48;0.73;;;0.60;;
7479;SDS011;3781;42.272;22.658;2023-04-03T12:27:19;0.20;;;0.20;;
7479;SDS011;3781;42.272;22.658;2023-04-03T12:29:51;0.77;;;0.77;;
7479;SDS011;3781;42.272;22.658;2023-04-03T12:32:24;1.47;;;0.57;;
7479;SDS011;3781;42.272;22.658;2023-04-03T12:35:06;1.93;;;0.90;;
7479;SDS011;3781;42.272;22.658;2023-04-03T12:37:57;0.67;;;0.67;;
7479;SDS011;3781;42.272;22.658;2023-04-03T12:40:47;1.13;;;0.70;;
7479;SDS011;3781;42.272;22.658;2023-04-03T12:43:24;0.93;;;0.80;;
7479;SDS011;3781;42.272;22.658;2023-04-03T12:46:15;1.13;;;0.50;;
7479;SDS011;3781;42.272;22.658;2023-04-03T12:48:48;1.17;;;0.57;;
7479;SDS011;3781;42.272;22.658;2023-04-03T12:51:17;3.97;;;2.27;;
7479;SDS011;3781;42.272;22.658;2023-04-03T12:53:50;7.43;;;3.30;;
7479;SDS011;3781;42.272;22.658;2023-04-03T12:56:22;1.43;;;1.43;;
7479;SDS011;3781;42.272;22.658;2023-04-03T12:58:52;1.20;;;1.10;;
7479;SDS011;3781;42.272;22.658;2023-04-03T13:01:22;2.93;;;2.27;;
7479;SDS011;3781;42.272;22.658;2023-04-03T13:03:52;2.17;;;1.43;;
7479;SDS011;3781;42.272;22.658;2023-04-03T13:06:21;1.13;;;1.13;;
7479;SDS011;3781;42.272;22.658;2023-04-03T13:08:52;3.50;;;1.17;;
7479;SDS011;3781;42.272;22.658;2023-04-03T13:11:22;2.37;;;0.83;;
7479;SDS011;3781;42.272;22.658;2023-04-03T13:13:55;2.47;;;1.63;;
7479;SDS011;3781;42.272;22.658;2023-04-03T13:16:23;1.27;;;0.73;;
7479;SDS011;3781;42.272;22.658;2023-04-03T13:18:50;1.73;;;1.17;;
7479;SDS011;3781;42.272;22.658;2023-04-03T13:21:18;1.80;;;1.17;;
7479;SDS011;3781;42.272;22.658;2023-04-03T13:23:47;0.60;;;0.60;;
7479;SDS011;3781;42.272;22.658;2023-04-03T13:26:18;1.47;;;1.27;;
7479;SDS011;3781;42.272;22.658;2023-04-03T13:28:48;0.50;;;0.50;;
7479;SDS011;3781;42.272;22.658;2023-04-03T13:31:18;0.83;;;0.50;;
7479;SDS011;3781;42.272;22.658;2023-04-03T13:33:52;0.47;;;0.47;;
7479;SDS011;3781;42.272;22.658;2023-04-03T13:36:22;0.60;;;0.57;;
7479;SDS011;3781;42.272;22.658;2023-04-03T13:38:58;1.70;;;0.60;;
7479;SDS011;3781;42.272;22.658;2023-04-03T13:41:31;0.90;;;0.90;;
7479;SDS011;3781;42.272;22.658;2023-04-03T13:44:14;0.43;;;0.43;;
7479;SDS011;3781;42.272;22.658;2023-04-03T13:46:42;0.50;;;0.50;;
7479;SDS011;3781;42.272;22.658;2023-04-03T13:49:17;1.80;;;0.60;;
7479;SDS011;3781;42.272;22.658;2023-04-03T13:51:46;0.30;;;0.30;;
7479;SDS011;3781;42.272;22.658;2023-04-03T13:54:16;1.60;;;0.73;;
7479;SDS011;3781;42.272;22.658;2023-04-03T13:56:51;0.93;;;0.40;;
7479;SDS011;3781;42.272;22.658;2023-04-03T13:59:22;0.37;;;0.30;;
7479;SDS011;3781;42.272;22.658;2023-04-03T14:01:51;0.27;;;0.27;;
7479;SDS011;3781;42.272;22.658;2023-04-03T14:04:21;28.83;;;12.00;;
7479;SDS011;3781;42.272;22.658;2023-04-03T14:06:50;23.70;;;11.00;;
7479;SDS011;3781;42.272;22.658;2023-04-03T14:09:18;4.73;;;3.03;;
7479;SDS011;3781;42.272;22.658;2023-04-03T14:11:48;12.30;;;3.67;;
7479;SDS011;3781;42.272;22.658;2023-04-03T14:14:18;5.87;;;3.57;;
7479;SDS011;3781;42.272;22.658;2023-04-03T14:16:48;6.23;;;1.47;;
7479;SDS011;3781;42.272;22.658;2023-04-03T14:19:19;3.30;;;1.63;;
7479;SDS011;3781;42.272;22.658;2023-04-03T14:21:48;1.53;;;1.30;;
7479;SDS011;3781;42.272;22.658;2023-04-03T14:24:17;2.30;;;1.80;;
7479;SDS011;3781;42.272;22.658;2023-04-03T14:26:45;2.47;;;1.30;;
7479;SDS011;3781;42.272;22.658;2023-04-03T14:29:14;1.27;;;0.87;;
7479;SDS011;3781;42.272;22.658;2023-04-03T14:31:41;0.40;;;0.40;;
7479;SDS011;3781;42.272;22.658;2023-04-03T14:34:09;1.60;;;0.63;;
7479;SDS011;3781;42.272;22.658;2023-04-03T14:36:36;0.33;;;0.23;;
7479;SDS011;3781;42.272;22.658;2023-04-03T14:39:04;0.30;;;0.30;;
7479;SDS011;3781;42.272;22.658;2023-04-03T14:41:31;1.60;;;0.90;;
7479;SDS011;3781;42.272;22.658;2023-04-03T14:43:59;2.30;;;0.80;;
7479;SDS011;3781;42.272;22.658;2023-04-03T14:46:28;0.60;;;0.47;;
7479;SDS011;3781;42.272;22.658;2023-04-03T14:48:57;6.27;;;2.97;;
7479;SDS011;3781;42.272;22.658;2023-04-03T14:51:26;2.97;;;2.37;;
7479;SDS011;3781;42.272;22.658;2023-04-03T14:53:53;0.60;;;0.60;;
7479;SDS011;3781;42.272;22.658;2023-04-03T14:56:21;1.23;;;1.17;;
7479;SDS011;3781;42.272;22.658;2023-04-03T14:58:52;2.00;;;0.67;;
7479;SDS011;3781;42.272;22.658;2023-04-03T15:01:22;0.30;;;0.30;;
7479;SDS011;3781;42.272;22.658;2023-04-03T15:03:50;0.57;;;0.50;;
7479;SDS011;3781;42.272;22.658;2023-04-03T15:06:17;2.90;;;0.90;;
7479;SDS011;3781;42.272;22.658;2023-04-03T15:08:47;1.63;;;0.97;;
7479;SDS011;3781;42.272;22.658;2023-04-03T15:11:14;0.73;;;0.73;;
7479;SDS011;3781;42.272;22.658;2023-04-03T15:13:45;0.27;;;0.20;;
7479;SDS011;3781;42.272;22.658;2023-04-03T15:16:12;0.70;;;0.57;;
7479;SDS011;3781;42.272;22.658;2023-04-03T15:18:42;2.00;;;1.53;;
7479;SDS011;3781;42.272;22.658;2023-04-03T15:21:11;2.37;;;1.23;;
7479;SDS011;3781;42.272;22.658;2023-04-03T15:23:38;1.40;;;0.50;;
7479;SDS011;3781;42.272;22.658;2023-04-03T15:26:05;0.37;;;0.30;;
7479;SDS011;3781;42.272;22.658;2023-04-03T15:28:32;0.20;;;0.20;;
7479;SDS011;3781;42.272;22.658;2023-04-03T15:31:01;2.63;;;1.00;;
7479;SDS011;3781;42.272;22.658;2023-04-03T15:33:29;0.80;;;0.80;;
7479;SDS011;3781;42.272;22.658;2023-04-03T15:35:56;0.30;;;0.30;;